Time,TemperatureF,DewpointF,PressureIn,WindDirection,WindDirectionDegrees,WindSpeedMPH,WindSpeedGustMPH,Humidity,HourlyPrecipIn,Conditions,Clouds,dailyrainin,SoftwareType,DateUTC
2013-02-20 00:00:00,16.5,1.1,29.86,WNW,292,1.3,9.8,50,0.00,,SKC,0.00,VWS V14.01,2013-02-20 05:00:00,
2013-02-20 00:15:00,16.5,0.7,29.86,NW,315,6.0,9.3,49,0.00,,SKC,0.00,VWS V14.01,2013-02-20 05:15:00,
2013-02-20 00:30:00,15.9,0.1,29.86,NNW,338,10.7,10.9,49,0.00,,SKC,0.00,VWS V14.01,2013-02-20 05:30:00,
2013-02-20 00:45:00,15.9,0.1,29.87,NNW,338,8.2,10.9,49,0.00,,SKC,0.00,VWS V14.01,2013-02-20 05:45:00,
2013-02-20 08:45:00,16.1,-1.5,30.01,NNW,338,2.2,10.5,45,0.00,,SKC,0.00,VWS V14.01,2013-02-20 13:45:00,
2013-02-20 09:00:00,16.8,-1.3,30.00,NW,315,7.1,9.3,44,0.00,,SKC,0.00,VWS V14.01,2013-02-20 14:00:00,
2013-02-20 09:15:00,17.4,-1.8,30.01,NW,315,5.5,9.1,42,0.00,,SKC,0.00,VWS V14.01,2013-02-20 14:15:00,
2013-02-20 09:30:00,18.1,-1.1,30.01,NNW,338,11.1,11.1,42,0.00,,SKC,0.00,VWS V14.01,2013-02-20 14:30:00,
2013-02-20 09:45:00,18.6,-1.2,30.01,North,0,0.0,11.1,41,0.00,,SKC,0.00,VWS V14.01,2013-02-20 14:45:00,
2013-02-20 10:00:00,18.6,-1.7,30.02,NNE,22,0.0,7.1,40,0.00,,SKC,0.00,VWS V14.01,2013-02-20 15:00:00,
2013-02-20 10:15:00,19.4,-1.0,30.02,NW,315,5.3,6.9,40,0.00,,SKC,0.00,VWS V14.01,2013-02-20 15:15:00,
2013-02-20 10:30:00,19.5,-1.4,30.02,North,0,2.0,8.7,39,0.00,,SKC,0.00,VWS V14.01,2013-02-20 15:30:00,
2013-02-20 10:45:00,18.8,-2.6,30.02,North,0,2.9,6.4,38,0.00,,SKC,0.00,VWS V14.01,2013-02-20 15:45:00,
2013-02-20 11:00:00,19.0,-2.4,30.03,North,0,2.6,7.8,38,0.00,,SKC,0.00,VWS V14.01,2013-02-20 16:00:00,
2013-02-20 11:50:00,19.5,-2.0,30.04,NW,315,5.5,7.6,38,0.00,,SKC,0.00,VWS V14.01,2013-02-20 16:50:00,
2013-02-20 12:00:00,19.5,-2.5,30.05,WNW,292,6.0,7.6,37,0.00,,SKC,0.00,VWS V14.01,2013-02-20 17:00:00,
2013-02-20 12:15:00,19.4,-2.6,30.05,NNW,338,11.6,11.6,37,0.00,,SKC,0.00,VWS V14.01,2013-02-20 17:15:00,
2013-02-20 12:30:00,19.7,-1.8,30.06,North,0,5.5,12.0,38,0.00,,SKC,0.00,VWS V14.01,2013-02-20 17:30:00,
2013-02-20 12:45:00,19.7,-1.8,30.06,NW,315,11.1,11.1,38,0.00,,SKC,0.00,VWS V14.01,2013-02-20 17:45:00,
2013-02-20 13:00:00,19.9,-2.2,30.06,NNW,338,1.1,11.1,37,0.00,,SKC,0.00,VWS V14.01,2013-02-20 18:00:00,
2013-02-20 13:15:00,20.4,-1.1,30.07,NNW,338,5.8,11.1,38,0.00,,SKC,0.00,VWS V14.01,2013-02-20 18:15:00,
2013-02-20 13:30:00,20.3,-2.4,30.07,NNW,338,5.1,10.2,36,0.00,,SKC,0.00,VWS V14.01,2013-02-20 18:30:00,
2013-02-20 13:45:00,20.6,-1.5,30.07,NNW,338,8.0,12.3,37,0.00,,SKC,0.00,VWS V14.01,2013-02-20 18:45:00,
2013-02-20 14:00:00,20.6,-2.1,30.07,NW,315,4.9,9.6,36,0.00,,SKC,0.00,VWS V14.01,2013-02-20 19:00:00,
2013-02-20 14:15:00,20.6,-2.7,30.07,NW,315,5.5,6.0,35,0.00,,SKC,0.00,VWS V14.01,2013-02-20 19:15:00,
2013-02-20 14:30:00,21.0,-2.3,30.07,NNW,338,3.1,8.9,35,0.00,,SKC,0.00,VWS V14.01,2013-02-20 19:30:00,
2013-02-20 14:45:00,21.3,-1.5,30.07,NNW,338,3.8,6.0,36,0.00,,SKC,0.00,VWS V14.01,2013-02-20 19:45:00,
2013-02-20 15:00:00,21.2,-1.6,30.07,NW,315,1.3,6.2,36,0.00,,SKC,0.00,VWS V14.01,2013-02-20 20:00:00,
2013-02-20 15:15:00,21.0,-1.8,30.07,NW,315,5.3,5.3,36,0.00,,SKC,0.00,VWS V14.01,2013-02-20 20:15:00,
2013-02-20 15:30:00,20.8,-1.4,30.08,NNW,338,5.5,10.2,37,0.00,,SKC,0.00,VWS V14.01,2013-02-20 20:30:00,
2013-02-20 15:45:00,20.8,-1.4,30.09,NNW,338,12.7,12.7,37,0.00,,SKC,0.00,VWS V14.01,2013-02-20 20:45:00,
2013-02-20 16:00:00,20.6,-0.4,30.10,SSW,202,0.0,12.7,39,0.00,,SKC,0.00,VWS V14.01,2013-02-20 21:00:00,
2013-02-20 16:15:00,20.4,-0.1,30.11,NNW,338,2.0,11.1,40,0.00,,SKC,0.00,VWS V14.01,2013-02-20 21:15:00,
2013-02-20 16:30:00,20.3,0.4,30.12,NNW,338,0.8,7.3,41,0.00,,SKC,0.00,VWS V14.01,2013-02-20 21:30:00,
2013-02-20 16:45:00,20.1,0.7,30.12,WSW,248,4.2,6.7,42,0.00,,SKC,0.00,VWS V14.01,2013-02-20 21:45:00,
2013-02-20 17:00:00,20.3,0.9,30.13,NW,315,3.1,6.0,42,0.00,,SKC,0.00,VWS V14.01,2013-02-20 22:00:00,
2013-02-20 17:15:00,20.1,1.2,30.13,WNW,292,3.8,8.5,43,0.00,,SKC,0.00,VWS V14.01,2013-02-20 22:15:00,
2013-02-20 17:30:00,19.9,1.0,30.13,NW,315,8.9,10.0,43,0.00,,SKC,0.00,VWS V14.01,2013-02-20 22:30:00,
2013-02-20 17:45:00,19.9,2.0,30.13,NW,315,4.6,8.9,45,0.00,,SKC,0.00,VWS V14.01,2013-02-20 22:45:00,
2013-02-20 18:00:00,19.7,2.3,30.13,NNW,338,8.0,9.8,46,0.00,,SKC,0.00,VWS V14.01,2013-02-20 23:00:00,
2013-02-20 18:15:00,19.7,2.3,30.12,NNE,22,2.0,8.0,46,0.00,,SKC,0.00,VWS V14.01,2013-02-20 23:15:00,
2013-02-20 18:30:00,19.7,2.8,30.12,NW,315,4.9,11.1,47,0.00,,SKC,0.00,VWS V14.01,2013-02-20 23:30:00,
2013-02-20 19:16:00,19.9,3.8,30.13,NNW,338,6.0,7.3,49,0.00,,SKC,0.00,VWS V14.01,2013-02-21 00:16:00,
2013-02-20 19:30:00,20.1,4.0,30.13,North,0,3.1,6.0,49,0.00,,SKC,0.00,VWS V14.01,2013-02-21 00:30:00,
2013-02-20 19:45:00,20.1,4.0,30.13,NNW,338,0.8,6.2,49,0.00,,SKC,0.00,VWS V14.01,2013-02-21 00:45:00,
2013-02-20 20:00:00,20.1,4.0,30.13,NNW,338,1.7,10.5,49,0.00,,SKC,0.00,VWS V14.01,2013-02-21 01:00:00,
2013-02-20 20:15:00,20.1,4.5,30.13,North,0,1.7,4.0,50,0.00,,SKC,0.00,VWS V14.01,2013-02-21 01:15:00,
2013-02-20 20:30:00,20.3,4.6,30.13,NNW,338,0.0,4.2,50,0.00,,SKC,0.00,VWS V14.01,2013-02-21 01:30:00,
2013-02-20 20:45:00,20.3,5.1,30.14,NNE,22,0.0,6.0,51,0.00,,SKC,0.00,VWS V14.01,2013-02-21 01:45:00,
2013-02-20 21:00:00,20.3,5.1,30.14,NNW,338,1.5,6.0,51,0.00,,SKC,0.00,VWS V14.01,2013-02-21 02:00:00,
2013-02-20 21:15:00,20.3,4.6,30.13,NNW,338,0.0,4.2,50,0.00,,SKC,0.00,VWS V14.01,2013-02-21 02:15:00,
2013-02-20 21:30:00,20.1,4.5,30.14,NNE,22,0.0,6.2,50,0.00,,SKC,0.00,VWS V14.01,2013-02-21 02:30:00,
2013-02-20 21:45:00,20.1,4.9,30.15,North,0,2.4,5.1,51,0.00,,SKC,0.00,VWS V14.01,2013-02-21 02:45:00,
2013-02-20 22:01:00,20.1,4.9,30.15,NW,315,4.4,7.3,51,0.00,,SKC,0.00,VWS V14.01,2013-02-21 03:01:00,
2013-02-20 22:15:00,19.9,4.7,30.15,NNW,338,3.1,4.4,51,0.00,,SKC,0.00,VWS V14.01,2013-02-21 03:15:00,
2013-02-20 22:30:00,19.7,4.5,30.15,NNE,22,1.5,6.0,51,0.00,,SKC,0.00,VWS V14.01,2013-02-21 03:30:00,
2013-02-20 22:45:00,19.5,4.3,30.15,NNW,338,3.5,3.5,51,0.00,,SKC,0.00,VWS V14.01,2013-02-21 03:45:00,
2013-02-20 23:00:00,19.5,4.3,30.16,North,0,1.1,3.5,51,0.00,,SKC,0.00,VWS V14.01,2013-02-21 04:00:00,
2013-02-20 23:15:00,19.5,4.3,30.15,NNE,22,3.3,7.8,51,0.00,,SKC,0.00,VWS V14.01,2013-02-21 04:15:00,
2013-02-20 23:30:00,19.2,4.1,30.15,North,0,0.6,4.6,51,0.00,,SKC,0.00,VWS V14.01,2013-02-21 04:30:00,
2013-02-20 23:45:00,19.0,3.9,30.15,NNE,22,0.0,4.4,51,0.00,,SKC,0.00,VWS V14.01,2013-02-21 04:45:00,